Canso, Canada
Current Conditions -  °F | °C
As of 2:22 PM on Thursday 27 Nov 2014 (Local Time) from CYPD Reporting Station
Haze Haze  
Wind Chill: 32°   Ceiling: 400
Heat Index: 41°   Visibility: 6mi
Dew Point: 39°   Wind: 21mph
Humidity: 93%   Direction: 270°W
Pressure: 29.33"   Gusts: 30mph
Location:  45.34°N, 61°W
Report Text: CYPD 271822Z AUTO 27018G26KT 6SM BR BKN004 OVC009 05/04 A2933 RMK SLP936
Loading
Personal Weather Stations






























Interactive Weather Map New forecast layout! Learn more

10-Day Weather Forecast

Advertisements
Track Severe Weather on mobile